Time;durP1;ratioP1;P1;durP2;ratioP2;P2;SDS_P1;SDS_P2;PMS_P1;PMS_P2;Temp;Humidity;BMP_temperature;BMP_pressure;BME280_temperature;BME280_humidity;BME280_pressure;Samples;Min_cycle;Max_cycle;Signal;HPM_P1;HPM_P2
2023/06/22 00:00:11;;;;;;;5.75;4.68;;;24.60;99.90;;;;;;5105368;27;20231;-74
2023/06/22 00:02:38;;;;;;;5.00;4.50;;;24.50;99.90;;;;;;5097096;27;20216;-75
2023/06/22 00:05:06;;;;;;;5.63;4.38;;;24.60;99.90;;;;;;5096983;27;20664;-74
2023/06/22 00:07:33;;;;;;;7.18;4.75;;;24.60;99.90;;;;;;5094704;27;20266;-78
2023/06/22 00:10:00;;;;;;;7.53;4.85;;;24.60;99.90;;;;;;5102359;27;20248;-79
2023/06/22 00:12:28;;;;;;;5.70;5.07;;;24.40;99.90;;;;;;5100679;27;20292;-77
2023/06/22 00:14:55;;;;;;;5.70;4.88;;;24.20;99.90;;;;;;5102368;27;20210;-76
2023/06/22 00:17:22;;;;;;;4.68;4.28;;;24.10;99.90;;;;;;5100874;27;20296;-77
2023/06/22 00:19:53;;;;;;;5.80;4.28;;;24.00;99.90;;;;;;5101102;27;20559;-77
2023/06/22 00:22:21;;;;;;;4.68;4.28;;;24.10;99.90;;;;;;5098586;27;20201;-77
2023/06/22 00:24:48;;;;;;;5.20;4.45;;;24.10;99.90;;;;;;5094446;27;20200;-78
2023/06/22 00:27:15;;;;;;;6.72;4.43;;;24.20;99.90;;;;;;5097165;27;20212;-77
2023/06/22 00:29:43;;;;;;;5.40;4.60;;;24.10;99.90;;;;;;5097248;27;20676;-77
2023/06/22 00:32:10;;;;;;;7.00;5.60;;;24.10;99.90;;;;;;5096398;27;20228;-77
2023/06/22 00:34:37;;;;;;;5.68;5.13;;;24.10;99.90;;;;;;5098373;27;20320;-77
2023/06/22 00:37:04;;;;;;;6.40;4.68;;;24.00;99.90;;;;;;5098489;27;20282;-78
2023/06/22 00:39:33;;;;;;;7.57;5.00;;;24.00;99.90;;;;;;5098668;27;20228;-77
2023/06/22 00:42:00;;;;;;;5.93;5.35;;;24.00;99.90;;;;;;5098287;27;20220;-76
2023/06/22 00:44:27;;;;;;;6.97;5.05;;;23.80;99.90;;;;;;5096366;27;20225;-77
2023/06/22 00:46:55;;;;;;;6.10;5.50;;;23.60;99.90;;;;;;5097087;27;20975;-77
2023/06/22 00:49:22;;;;;;;6.10;5.35;;;23.50;99.90;;;;;;5098506;27;20355;-77
2023/06/22 00:51:49;;;;;;;6.32;5.70;;;23.50;99.90;;;;;;5096419;27;20201;-77
2023/06/22 00:54:24;;;;;;;8.18;5.75;;;23.40;99.90;;;;;;5096697;27;20301;-77
2023/06/22 00:56:52;;;;;;;6.63;5.63;;;23.50;99.90;;;;;;5097040;27;21125;-77
2023/06/22 00:59:19;;;;;;;8.10;6.25;;;23.50;99.90;;;;;;5098063;27;20220;-77
2023/06/22 01:01:46;;;;;;;7.13;5.68;;;23.60;99.90;;;;;;5098537;27;20250;-77
2023/06/22 01:04:14;;;;;;;9.05;6.28;;;23.80;99.90;;;;;;5098062;27;20283;-78
2023/06/22 01:07:02;;;;;;;9.50;5.93;;;23.90;99.90;;;;;;5096845;27;20285;-77
2023/06/22 01:09:35;;;;;;;8.40;5.30;;;23.90;99.90;;;;;;5098423;27;20267;-77
2023/06/22 01:12:06;;;;;;;7.63;5.18;;;23.90;99.90;;;;;;5104922;27;20196;-77
2023/06/22 01:14:38;;;;;;;6.72;5.32;;;24.00;99.90;;;;;;5099866;27;20908;-77
2023/06/22 01:17:08;;;;;;;6.40;5.45;;;24.00;99.90;;;;;;5102922;27;20213;-78
2023/06/22 01:19:46;;;;;;;5.85;4.90;;;24.00;99.90;;;;;;5102024;27;20312;-76
2023/06/22 01:22:16;;;;;;;5.30;4.80;;;24.00;99.90;;;;;;5098562;27;20200;-77
2023/06/22 01:24:52;;;;;;;6.90;5.72;;;24.00;99.90;;;;;;5103296;27;20224;-76
2023/06/22 01:27:32;;;;;;;5.38;4.80;;;24.00;99.90;;;;;;5100523;27;20782;-77
2023/06/22 01:30:05;;;;;;;5.88;5.28;;;24.00;99.90;;;;;;5097645;27;20280;-76
2023/06/22 01:32:34;;;;;;;5.60;5.05;;;24.00;99.90;;;;;;5103922;27;20229;-77
2023/06/22 01:35:03;;;;;;;5.55;4.85;;;23.90;99.90;;;;;;5104050;27;20283;-76
2023/06/22 01:37:32;;;;;;;7.00;4.55;;;23.90;99.90;;;;;;5099489;27;20686;-77
2023/06/22 01:40:00;;;;;;;5.75;4.63;;;23.90;99.90;;;;;;5100939;27;20231;-77
2023/06/22 01:42:27;;;;;;;6.70;5.30;;;23.90;99.90;;;;;;5109430;27;20491;-77
2023/06/22 01:44:55;;;;;;;6.25;5.45;;;23.90;99.90;;;;;;5110673;27;20197;-77
2023/06/22 01:47:24;;;;;;;5.47;5.07;;;23.80;99.90;;;;;;5096661;27;20217;-76
2023/06/22 01:49:52;;;;;;;6.35;5.07;;;23.70;99.90;;;;;;5099217;27;20216;-77
2023/06/22 01:52:20;;;;;;;6.93;5.25;;;23.80;99.90;;;;;;5099256;27;20323;-77
2023/06/22 01:54:48;;;;;;;5.80;5.13;;;23.70;99.90;;;;;;5100832;27;20200;-77
2023/06/22 01:57:15;;;;;;;5.97;5.15;;;23.70;99.90;;;;;;5099321;27;20273;-76
2023/06/22 01:59:53;;;;;;;5.68;5.10;;;23.60;99.90;;;;;;5100655;28;20240;-77
2023/06/22 02:02:29;;;;;;;5.82;5.25;;;23.70;99.90;;;;;;5096779;27;20217;-76
2023/06/22 02:04:59;;;;;;;5.32;4.82;;;23.70;99.90;;;;;;5098642;28;20197;-77
2023/06/22 02:07:32;;;;;;;6.15;5.50;;;23.70;99.90;;;;;;5098322;28;20223;-76
2023/06/22 02:10:00;;;;;;;5.38;4.97;;;23.70;99.90;;;;;;5099470;27;20223;-75
2023/06/22 02:12:29;;;;;;;5.25;4.80;;;23.70;99.90;;;;;;5102995;28;20269;-76
2023/06/22 02:14:56;;;;;;;6.35;5.53;;;23.80;99.90;;;;;;5102142;28;20870;-75
2023/06/22 02:17:26;;;;;;;6.78;5.28;;;23.80;99.90;;;;;;5099029;28;20819;-76
2023/06/22 02:19:53;;;;;;;6.05;5.30;;;23.80;99.90;;;;;;5101512;28;20228;-75
2023/06/22 02:22:20;;;;;;;5.07;4.40;;;23.80;99.90;;;;;;5099203;28;20225;-76
2023/06/22 02:24:47;;;;;;;7.25;5.63;;;23.80;99.90;;;;;;5102469;27;22339;-77
2023/06/22 02:27:14;;;;;;;5.30;4.75;;;23.80;99.90;;;;;;5099849;28;20292;-76
2023/06/22 02:29:41;;;;;;;6.10;5.30;;;23.80;99.90;;;;;;5103474;27;20694;-76
2023/06/22 02:32:08;;;;;;;5.50;4.95;;;23.80;99.90;;;;;;5100439;28;20288;-76
2023/06/22 02:34:37;;;;;;;6.03;5.30;;;23.60;99.90;;;;;;5099256;28;20231;-76
2023/06/22 02:37:04;;;;;;;6.95;5.55;;;23.50;99.90;;;;;;5099821;28;20325;-76
2023/06/22 02:39:31;;;;;;;6.45;5.10;;;23.50;99.90;;;;;;5096070;28;20220;-76
2023/06/22 02:41:58;;;;;;;6.80;5.50;;;23.50;99.90;;;;;;5100653;27;20280;-77
2023/06/22 02:44:25;;;;;;;6.43;5.07;;;23.50;99.90;;;;;;5097475;28;20280;-77
2023/06/22 02:46:54;;;;;;;5.85;5.15;;;23.50;99.90;;;;;;5096168;28;20205;-76
2023/06/22 02:49:20;;;;;;;6.43;5.15;;;23.50;99.90;;;;;;5097508;28;20229;-76
2023/06/22 02:51:49;;;;;;;6.45;5.80;;;23.50;99.90;;;;;;5099125;28;20339;-77
2023/06/22 02:54:17;;;;;;;7.22;5.53;;;23.50;99.90;;;;;;5097765;28;20240;-77
2023/06/22 02:56:44;;;;;;;6.57;5.43;;;23.60;99.90;;;;;;5093025;28;20806;-77
2023/06/22 02:59:11;;;;;;;6.95;4.97;;;23.60;99.90;;;;;;5098746;28;20217;-75
2023/06/22 03:01:39;;;;;;;5.53;5.13;;;23.60;99.90;;;;;;5096436;28;20287;-77
2023/06/22 03:04:07;;;;;;;6.55;5.13;;;23.70;99.90;;;;;;5100250;27;20207;-78
2023/06/22 03:06:34;;;;;;;6.40;5.53;;;23.70;99.90;;;;;;5097952;28;20189;-77
2023/06/22 03:09:04;;;;;;;6.00;5.40;;;23.70;99.90;;;;;;5097629;28;20242;-78
2023/06/22 03:11:31;;;;;;;6.38;5.78;;;23.70;99.90;;;;;;5104623;27;20204;-77
2023/06/22 03:13:58;;;;;;;7.22;6.18;;;23.70;99.90;;;;;;5100689;27;20245;-77
2023/06/22 03:16:25;;;;;;;6.25;5.45;;;23.70;99.90;;;;;;5099711;27;20244;-76
2023/06/22 03:18:53;;;;;;;5.72;5.22;;;23.60;99.90;;;;;;5099502;27;20248;-77
2023/06/22 03:21:20;;;;;;;8.77;5.30;;;23.60;99.90;;;;;;5101840;27;20203;-76
2023/06/22 03:23:47;;;;;;;5.82;5.32;;;23.60;99.90;;;;;;5099219;27;20305;-79
2023/06/22 03:26:18;;;;;;;5.60;5.10;;;23.50;99.90;;;;;;5100557;27;20225;-77
2023/06/22 03:28:45;;;;;;;6.10;5.50;;;23.60;99.90;;;;;;5101093;27;20212;-79
2023/06/22 03:31:12;;;;;;;6.97;5.55;;;23.50;99.90;;;;;;5101155;27;20329;-75
2023/06/22 03:33:39;;;;;;;6.38;5.78;;;23.50;99.90;;;;;;5102167;27;20284;-77
2023/06/22 03:36:06;;;;;;;5.60;5.10;;;23.50;99.90;;;;;;5108472;27;20256;-76
2023/06/22 03:38:33;;;;;;;5.80;5.13;;;23.60;99.90;;;;;;5112836;27;20297;-76
2023/06/22 03:41:00;;;;;;;5.20;4.70;;;23.60;99.90;;;;;;5097143;27;20229;-77
2023/06/22 03:43:28;;;;;;;7.93;5.63;;;23.60;99.90;;;;;;5099609;27;20225;-77
2023/06/22 03:45:55;;;;;;;8.00;5.25;;;23.60;99.90;;;;;;5097800;27;20294;-75
2023/06/22 03:48:22;;;;;;;5.68;5.13;;;23.60;99.90;;;;;;5101801;27;20303;-77
2023/06/22 03:50:49;;;;;;;5.53;5.03;;;23.60;99.90;;;;;;5100347;27;20280;-76
2023/06/22 03:53:16;;;;;;;5.53;5.03;;;23.70;99.90;;;;;;5098523;27;20284;-76
2023/06/22 03:55:50;;;;;;;5.88;5.22;;;23.70;99.90;;;;;;5100606;27;20709;-77
2023/06/22 03:58:18;;;;;;;6.88;5.40;;;23.70;99.90;;;;;;5101125;27;20225;-77
2023/06/22 04:00:47;;;;;;;6.85;5.68;;;23.70;99.90;;;;;;5096602;27;20205;-76
2023/06/22 04:03:14;;;;;;;5.40;4.90;;;23.70;99.90;;;;;;5100434;27;20216;-76
2023/06/22 04:05:41;;;;;;;7.53;5.45;;;23.70;99.90;;;;;;5095921;27;21979;-76
2023/06/22 04:08:08;;;;;;;5.78;5.20;;;23.70;99.90;;;;;;5097914;27;20766;-76
2023/06/22 04:10:35;;;;;;;5.47;4.97;;;23.80;99.90;;;;;;5102013;27;20300;-78
2023/06/22 04:13:02;;;;;;;5.47;4.93;;;23.80;99.90;;;;;;5097524;27;20228;-77
2023/06/22 04:15:29;;;;;;;6.43;5.35;;;23.80;99.90;;;;;;5098604;27;20805;-77
2023/06/22 04:17:58;;;;;;;6.63;5.63;;;23.80;99.90;;;;;;5099138;27;20248;-76
2023/06/22 04:20:26;;;;;;;6.07;5.57;;;23.90;99.90;;;;;;5099094;27;20285;-77
2023/06/22 04:22:53;;;;;;;6.13;5.53;;;23.90;99.90;;;;;;5097861;27;20201;-77
2023/06/22 04:25:21;;;;;;;8.38;5.82;;;23.90;99.90;;;;;;5099681;27;20310;-76
2023/06/22 04:27:48;;;;;;;6.35;5.65;;;24.00;99.90;;;;;;5099169;27;20204;-77
2023/06/22 04:30:16;;;;;;;5.82;5.32;;;24.00;99.90;;;;;;5098084;27;20200;-77
2023/06/22 04:32:43;;;;;;;5.93;5.13;;;24.00;99.90;;;;;;5102909;27;20203;-76
2023/06/22 04:35:13;;;;;;;5.72;5.15;;;24.10;99.90;;;;;;5096803;27;20256;-76
2023/06/22 04:37:40;;;;;;;6.18;5.57;;;24.10;99.90;;;;;;5101729;27;20221;-76
2023/06/22 04:40:08;;;;;;;6.75;5.15;;;24.10;99.90;;;;;;5097827;27;20308;-76
2023/06/22 04:42:36;;;;;;;7.85;5.10;;;24.10;99.90;;;;;;5098902;27;20201;-77
2023/06/22 04:45:04;;;;;;;6.00;5.38;;;24.10;99.90;;;;;;5100158;27;20860;-76
2023/06/22 04:47:31;;;;;;;6.25;5.65;;;24.10;99.90;;;;;;5101825;27;20197;-76
2023/06/22 04:49:58;;;;;;;8.18;5.78;;;24.20;99.90;;;;;;5097408;27;20223;-77
2023/06/22 04:52:27;;;;;;;6.25;5.68;;;24.20;99.90;;;;;;5097413;27;20228;-77
2023/06/22 04:54:59;;;;;;;6.47;5.72;;;24.20;99.90;;;;;;5097424;27;20201;-76
2023/06/22 04:57:32;;;;;;;5.40;5.00;;;24.20;99.90;;;;;;5098869;27;20217;-76
2023/06/22 05:00:06;;;;;;;5.85;5.30;;;24.30;99.90;;;;;;5101514;27;20217;-76
2023/06/22 05:02:33;;;;;;;5.95;5.35;;;24.30;99.90;;;;;;5095435;27;20195;-77
2023/06/22 05:05:00;;;;;;;5.70;5.05;;;24.30;99.90;;;;;;5095185;27;20737;-77
2023/06/22 05:07:29;;;;;;;7.35;6.10;;;24.40;99.90;;;;;;5106287;27;20272;-76
2023/06/22 05:09:56;;;;;;;6.70;6.07;;;24.40;99.90;;;;;;5101519;27;20225;-77
2023/06/22 05:12:23;;;;;;;6.03;5.53;;;24.50;99.90;;;;;;5093003;27;20266;-77
2023/06/22 05:14:50;;;;;;;7.20;6.50;;;24.50;99.90;;;;;;5094598;27;20848;-77
2023/06/22 05:17:19;;;;;;;7.18;6.45;;;24.60;99.90;;;;;;5097303;27;20243;-77
2023/06/22 05:19:48;;;;;;;7.00;6.40;;;24.70;99.90;;;;;;5098062;27;20843;-77
2023/06/22 05:22:16;;;;;;;8.73;6.40;;;24.70;99.90;;;;;;5100008;27;20194;-77
2023/06/22 05:24:45;;;;;;;8.27;6.78;;;24.70;99.90;;;;;;5097226;27;20288;-76
2023/06/22 05:27:11;;;;;;;6.72;6.13;;;24.80;99.90;;;;;;5097537;27;20209;-76
2023/06/22 05:29:39;;;;;;;11.82;7.82;;;24.80;99.90;;;;;;5112242;27;20259;-77
2023/06/22 05:32:06;;;;;;;9.35;7.93;;;24.80;99.90;;;;;;5107835;27;20747;-76
2023/06/22 05:34:33;;;;;;;9.90;8.43;;;24.80;99.90;;;;;;5097062;28;20241;-77
2023/06/22 05:37:00;;;;;;;9.57;8.55;;;24.80;99.90;;;;;;5097827;27;20262;-77
2023/06/22 05:39:27;;;;;;;10.85;7.63;;;24.70;99.90;;;;;;5096626;27;20731;-76
2023/06/22 05:41:55;;;;;;;7.60;6.88;;;24.70;99.90;;;;;;5098451;27;20840;-76
2023/06/22 05:44:22;;;;;;;8.18;7.32;;;24.60;99.90;;;;;;5099456;27;20297;-75
2023/06/22 05:46:49;;;;;;;10.55;7.97;;;24.50;99.90;;;;;;5097421;27;20209;-75
2023/06/22 05:49:17;;;;;;;8.73;7.93;;;24.50;99.90;;;;;;5100163;27;20219;-74
2023/06/22 05:51:44;;;;;;;7.18;6.47;;;24.50;99.90;;;;;;5100661;27;20736;-74
2023/06/22 05:54:13;;;;;;;8.20;7.40;;;24.40;99.90;;;;;;5098682;28;20293;-77
2023/06/22 05:56:40;;;;;;;7.32;6.45;;;24.40;99.90;;;;;;5100891;27;20197;-77
2023/06/22 05:59:08;;;;;;;7.32;6.63;;;24.40;99.90;;;;;;5097434;28;20251;-77
2023/06/22 06:01:35;;;;;;;7.93;6.85;;;24.40;99.90;;;;;;5096266;27;20244;-76
2023/06/22 06:04:03;;;;;;;7.82;7.00;;;24.40;99.90;;;;;;5095913;27;20633;-76
2023/06/22 06:06:30;;;;;;;7.22;6.53;;;24.50;99.90;;;;;;5096766;27;20201;-78
2023/06/22 06:08:58;;;;;;;7.47;6.78;;;24.60;99.90;;;;;;5097042;28;20335;-77
2023/06/22 06:11:26;;;;;;;7.70;6.85;;;24.70;99.90;;;;;;5097349;27;20621;-77
2023/06/22 06:13:53;;;;;;;8.27;7.05;;;24.80;99.90;;;;;;5100777;28;20247;-78
2023/06/22 06:16:21;;;;;;;7.10;6.40;;;24.80;99.90;;;;;;5097075;28;20895;-76
2023/06/22 06:18:50;;;;;;;8.13;7.20;;;24.90;99.90;;;;;;5097058;28;20312;-76
2023/06/22 06:21:17;;;;;;;8.02;7.32;;;25.00;99.90;;;;;;5097782;28;20204;-78
2023/06/22 06:23:44;;;;;;;7.50;6.80;;;24.90;99.90;;;;;;5095324;28;20233;-76
2023/06/22 06:26:11;;;;;;;8.60;7.50;;;25.00;99.90;;;;;;5095275;28;20201;-76
2023/06/22 06:28:38;;;;;;;9.88;7.53;;;25.00;99.90;;;;;;5097820;28;20305;-78
2023/06/22 06:31:07;;;;;;;8.23;7.40;;;25.10;99.90;;;;;;5096030;28;20461;-77
2023/06/22 06:33:35;;;;;;;7.15;6.55;;;25.10;99.90;;;;;;5098852;28;20500;-77
2023/06/22 06:36:03;;;;;;;9.60;7.93;;;25.10;99.90;;;;;;5096890;28;20197;-77
2023/06/22 06:38:30;;;;;;;8.93;7.70;;;25.10;99.90;;;;;;5097120;27;20224;-78
2023/06/22 06:40:57;;;;;;;8.98;8.07;;;25.10;99.90;;;;;;5093120;28;20283;-78
2023/06/22 06:43:24;;;;;;;10.13;7.40;;;25.00;99.90;;;;;;5095065;28;20224;-78
2023/06/22 06:45:51;;;;;;;10.25;8.10;;;24.90;99.90;;;;;;5097444;27;20287;-77
2023/06/22 06:48:18;;;;;;;9.50;8.35;;;24.90;99.90;;;;;;5100236;27;20228;-78
2023/06/22 06:50:47;;;;;;;9.32;8.35;;;24.90;99.90;;;;;;5102279;27;20316;-78
2023/06/22 06:53:14;;;;;;;9.15;8.25;;;24.90;99.90;;;;;;5096906;27;20204;-79
2023/06/22 06:55:41;;;;;;;8.68;7.75;;;24.90;99.90;;;;;;5103411;27;20193;-79
2023/06/22 06:58:09;;;;;;;8.93;7.78;;;24.90;99.90;;;;;;5100893;27;20213;-78
2023/06/22 07:00:36;;;;;;;12.73;9.02;;;25.00;99.90;;;;;;5097051;27;20200;-79
2023/06/22 07:03:03;;;;;;;9.52;8.48;;;25.00;99.90;;;;;;5099969;27;20296;-77
2023/06/22 07:05:30;;;;;;;10.70;8.77;;;24.90;99.90;;;;;;5098433;27;20287;-77
2023/06/22 07:07:59;;;;;;;10.45;9.48;;;24.80;99.90;;;;;;5100473;27;20204;-77
2023/06/22 07:10:26;;;;;;;10.60;9.50;;;24.80;99.90;;;;;;5099743;27;20225;-78
2023/06/22 07:12:53;;;;;;;10.82;9.73;;;24.90;99.90;;;;;;5099189;27;20292;-79
2023/06/22 07:15:20;;;;;;;14.27;10.20;;;24.90;99.90;;;;;;5098424;27;21714;-78
2023/06/22 07:17:47;;;;;;;11.85;9.90;;;24.90;99.90;;;;;;5102178;27;20300;-79
2023/06/22 07:20:14;;;;;;;11.10;9.23;;;24.80;99.90;;;;;;5101257;27;21009;-79
2023/06/22 07:22:42;;;;;;;10.05;8.80;;;24.80;99.90;;;;;;5114592;27;20232;-79
2023/06/22 07:25:13;;;;;;;12.95;9.30;;;24.90;99.90;;;;;;5101135;27;20841;-78
2023/06/22 07:27:44;;;;;;;12.05;9.98;;;25.20;99.90;;;;;;5097079;27;20197;-79
2023/06/22 07:30:12;;;;;;;11.88;10.23;;;25.30;99.90;;;;;;5102716;27;20196;-78
2023/06/22 07:32:39;;;;;;;14.23;10.98;;;25.40;99.90;;;;;;5101991;27;20957;-79
2023/06/22 07:35:07;;;;;;;14.38;11.02;;;25.60;99.90;;;;;;5102071;27;20821;-79
2023/06/22 07:37:35;;;;;;;14.35;11.07;;;25.70;99.90;;;;;;5105780;27;20289;-78
2023/06/22 07:40:05;;;;;;;12.02;10.70;;;25.80;99.90;;;;;;5104601;27;20224;-78
2023/06/22 07:42:34;;;;;;;12.20;10.32;;;26.00;99.90;;;;;;5102987;27;20209;-79
2023/06/22 07:45:02;;;;;;;15.98;10.68;;;26.20;99.90;;;;;;5102387;27;20296;-78
2023/06/22 07:47:29;;;;;;;13.07;11.38;;;26.40;99.90;;;;;;5099263;27;20201;-78
2023/06/22 07:49:57;;;;;;;15.77;10.65;;;26.30;99.90;;;;;;5098288;27;20312;-78
2023/06/22 07:52:25;;;;;;;12.10;10.05;;;26.20;99.90;;;;;;5098794;27;20221;-77
2023/06/22 07:54:53;;;;;;;12.98;10.20;;;26.10;99.90;;;;;;5101732;27;20212;-78
2023/06/22 07:57:20;;;;;;;14.02;10.13;;;26.10;99.90;;;;;;5101422;27;20220;-79
2023/06/22 07:59:48;;;;;;;9.65;8.60;;;26.20;99.90;;;;;;5101936;27;20219;-79
2023/06/22 08:02:15;;;;;;;11.18;9.20;;;26.40;99.90;;;;;;5100868;27;20930;-78
2023/06/22 08:04:42;;;;;;;11.93;10.13;;;26.50;99.90;;;;;;5101331;27;20201;-78
2023/06/22 08:07:10;;;;;;;13.02;9.88;;;26.50;99.90;;;;;;5098910;27;20229;-78
2023/06/22 08:09:37;;;;;;;13.00;9.98;;;26.50;99.90;;;;;;5100859;27;20698;-79
2023/06/22 08:12:04;;;;;;;13.07;9.52;;;26.40;99.90;;;;;;5090535;27;20580;-79
2023/06/22 08:14:31;;;;;;;10.95;9.77;;;26.40;99.90;;;;;;5100971;27;20289;-79
2023/06/22 08:17:00;;;;;;;10.95;9.40;;;26.40;99.90;;;;;;5094189;27;20232;-79
2023/06/22 08:19:27;;;;;;;12.05;9.82;;;26.60;99.90;;;;;;5092016;27;20291;-77
2023/06/22 08:21:53;;;;;;;11.30;9.18;;;26.70;99.90;;;;;;5097331;27;20201;-77
2023/06/22 08:24:20;;;;;;;10.68;9.57;;;26.80;99.90;;;;;;5098501;27;20614;-79
2023/06/22 08:26:47;;;;;;;10.25;9.10;;;26.90;99.90;;;;;;5093500;27;20328;-78
2023/06/22 08:29:14;;;;;;;10.90;9.65;;;27.10;99.90;;;;;;5094619;27;20829;-78
2023/06/22 08:31:41;;;;;;;12.60;10.15;;;27.20;99.90;;;;;;5094960;27;20555;-78
2023/06/22 08:34:10;;;;;;;14.60;10.95;;;27.10;99.90;;;;;;5097545;27;20330;-77
2023/06/22 08:36:41;;;;;;;14.55;10.93;;;26.90;99.90;;;;;;5092091;27;21060;-77
2023/06/22 08:39:09;;;;;;;13.10;10.75;;;26.80;99.90;;;;;;5093225;27;20217;-77
2023/06/22 08:41:36;;;;;;;11.52;9.95;;;26.70;99.90;;;;;;5093074;27;20205;-78
2023/06/22 08:44:03;;;;;;;12.95;10.63;;;26.70;99.90;;;;;;5097014;27;20228;-78
2023/06/22 08:46:33;;;;;;;11.45;10.20;;;26.60;99.90;;;;;;5095046;27;20202;-80
2023/06/22 08:49:01;;;;;;;13.93;10.20;;;26.60;99.90;;;;;;5079087;27;20296;-81
2023/06/22 08:51:29;;;;;;;10.02;9.02;;;26.60;99.90;;;;;;5101820;27;20217;-81
2023/06/22 08:53:56;;;;;;;10.60;9.57;;;26.90;99.90;;;;;;5105605;27;20575;-81
2023/06/22 08:56:23;;;;;;;10.50;9.48;;;27.20;99.90;;;;;;5105235;27;20262;-81
2023/06/22 08:58:50;;;;;;;12.65;10.13;;;27.60;99.90;;;;;;5098615;27;20217;-80
2023/06/22 09:01:17;;;;;;;11.23;9.95;;;27.80;99.90;;;;;;5098579;27;20255;-81
2023/06/22 09:03:44;;;;;;;13.68;9.80;;;28.20;99.90;;;;;;5103907;27;20277;-80
2023/06/22 09:06:13;;;;;;;11.90;10.60;;;28.40;99.90;;;;;;5106719;27;20678;-79
2023/06/22 09:08:41;;;;;;;12.60;10.57;;;28.70;99.90;;;;;;5105314;27;20221;-81
2023/06/22 09:11:08;;;;;;;11.48;9.85;;;28.90;99.90;;;;;;5105003;27;20197;-79
2023/06/22 09:13:36;;;;;;;13.25;10.07;;;29.00;99.90;;;;;;5115287;27;20208;-81
2023/06/22 09:16:03;;;;;;;12.93;10.23;;;29.10;99.90;;;;;;5117434;27;20810;-80
2023/06/22 09:18:30;;;;;;;12.50;10.63;;;29.40;99.90;;;;;;5099392;27;20225;-80
2023/06/22 09:20:57;;;;;;;10.90;9.80;;;29.60;99.90;;;;;;5098499;27;20193;-80
2023/06/22 09:23:25;;;;;;;13.50;10.70;;;29.70;99.90;;;;;;5100642;27;20203;-81
2023/06/22 09:25:53;;;;;;;14.77;10.13;;;29.80;99.90;;;;;;5106344;27;20253;-80
2023/06/22 09:28:20;;;;;;;12.80;10.23;;;29.90;99.90;;;;;;5103726;27;20217;-80
2023/06/22 09:30:47;;;;;;;11.55;10.35;;;30.00;99.90;;;;;;5101958;27;20255;-80
2023/06/22 09:33:14;;;;;;;11.27;9.60;;;30.00;99.90;;;;;;5100572;27;20710;-79
2023/06/22 09:35:41;;;;;;;11.93;9.52;;;29.90;99.90;;;;;;5104283;27;20228;-81
2023/06/22 09:38:08;;;;;;;12.48;9.90;;;30.00;99.90;;;;;;5107513;27;20209;-79
2023/06/22 09:40:39;;;;;;;12.07;9.52;;;30.00;99.90;;;;;;5110149;28;20209;-81
2023/06/22 09:43:08;;;;;;;12.48;9.07;;;29.90;99.90;;;;;;5109895;27;20236;-82
2023/06/22 09:45:35;;;;;;;11.73;9.32;;;30.10;99.90;;;;;;5105917;27;20538;-81
2023/06/22 09:48:01;;;;;;;11.45;9.07;;;30.20;99.90;;;;;;5102026;27;20250;-81
2023/06/22 09:50:28;;;;;;;11.73;9.98;;;30.50;99.90;;;;;;5105546;27;20204;-82
2023/06/22 09:52:55;;;;;;;11.95;10.13;;;30.70;99.90;;;;;;5112536;27;20193;-82
2023/06/22 09:55:22;;;;;;;11.63;9.48;;;30.70;99.90;;;;;;5102783;27;20286;-81
2023/06/22 09:57:49;;;;;;;10.45;9.38;;;30.70;99.90;;;;;;5106985;27;20273;-81
2023/06/22 10:00:21;;;;;;;15.02;9.32;;;30.80;99.90;;;;;;5103807;28;20201;-81
2023/06/22 10:02:51;;;;;;;10.82;8.90;;;31.10;99.90;;;;;;5104248;28;20643;-81
2023/06/22 10:05:18;;;;;;;14.52;9.25;;;30.90;99.90;;;;;;5105138;27;20648;-82
2023/06/22 10:07:45;;;;;;;11.27;9.30;;;30.90;99.90;;;;;;5103502;28;20679;-80
2023/06/22 10:10:13;;;;;;;9.85;8.75;;;30.80;99.90;;;;;;5106567;27;20228;-80
2023/06/22 10:12:44;;;;;;;10.35;9.20;;;30.60;99.90;;;;;;5104723;28;20204;-81
2023/06/22 10:15:11;;;;;;;12.65;9.48;;;30.50;99.90;;;;;;5099292;28;20281;-80
2023/06/22 10:17:39;;;;;;;12.57;9.15;;;30.70;99.90;;;;;;5107442;28;20296;-82
2023/06/22 10:20:11;;;;;;;9.27;8.38;;;30.90;99.90;;;;;;5108608;27;20266;-80
2023/06/22 10:22:39;;;;;;;8.98;8.07;;;30.90;99.90;;;;;;5108448;27;20203;-81
2023/06/22 10:25:07;;;;;;;12.32;9.35;;;31.10;99.90;;;;;;5112493;27;20234;-81
2023/06/22 10:27:33;;;;;;;12.95;8.73;;;31.40;99.90;;;;;;5103594;27;20289;-80
2023/06/22 10:30:00;;;;;;;12.18;9.05;;;31.50;99.90;;;;;;5106354;27;20211;-80
2023/06/22 10:32:28;;;;;;;10.05;8.88;;;31.70;99.90;;;;;;5102757;27;20277;-81
2023/06/22 10:34:56;;;;;;;11.95;8.90;;;31.70;99.90;;;;;;5098767;27;21709;-80
2023/06/22 10:37:23;;;;;;;11.77;8.50;;;31.80;99.90;;;;;;5108592;27;20285;-80
2023/06/22 10:39:50;;;;;;;11.18;9.15;;;31.80;99.90;;;;;;5098710;27;20307;-80
2023/06/22 10:42:17;;;;;;;11.52;8.73;;;31.60;99.90;;;;;;5102415;27;20287;-82
2023/06/22 10:44:44;;;;;;;13.48;8.93;;;31.30;99.90;;;;;;5105680;27;20775;-81
2023/06/22 10:47:12;;;;;;;10.70;9.27;;;31.30;99.90;;;;;;5104845;27;20811;-82
2023/06/22 10:49:39;;;;;;;13.32;8.95;;;31.30;99.90;;;;;;5102151;27;20240;-81
2023/06/22 10:52:09;;;;;;;10.93;8.35;;;31.50;99.90;;;;;;5107022;27;20310;-81
2023/06/22 10:54:36;;;;;;;8.90;8.02;;;31.70;99.90;;;;;;5103104;27;21295;-82
2023/06/22 10:57:03;;;;;;;12.52;8.65;;;31.90;99.90;;;;;;5099293;27;20709;-81
2023/06/22 10:59:31;;;;;;;12.90;9.73;;;31.90;99.90;;;;;;5102039;27;20252;-79
2023/06/22 11:01:58;;;;;;;9.55;8.55;;;31.90;99.90;;;;;;5106384;27;20313;-80
2023/06/22 11:04:25;;;;;;;9.55;8.15;;;31.90;99.90;;;;;;5127345;27;20193;-82
2023/06/22 11:06:52;;;;;;;12.20;8.63;;;32.10;99.90;;;;;;5101057;27;20296;-80
2023/06/22 11:09:24;;;;;;;10.45;8.70;;;32.20;99.90;;;;;;5096882;27;20291;-80
2023/06/22 11:11:53;;;;;;;13.13;9.13;;;32.20;99.90;;;;;;5096343;27;20295;-82
2023/06/22 11:14:20;;;;;;;10.48;9.00;;;32.30;99.90;;;;;;5098365;27;20738;-79
2023/06/22 11:16:47;;;;;;;8.93;7.93;;;32.10;99.90;;;;;;5097185;27;20308;-79
2023/06/22 11:19:14;;;;;;;9.55;7.20;;;31.70;99.90;;;;;;5099637;27;20846;-80
2023/06/22 11:21:41;;;;;;;7.75;6.95;;;31.50;99.90;;;;;;5098320;27;20361;-81
2023/06/22 11:24:08;;;;;;;8.02;7.25;;;31.80;99.90;;;;;;5096335;27;20233;-81
2023/06/22 11:26:36;;;;;;;9.20;7.50;;;32.10;99.90;;;;;;5094796;27;20200;-80
2023/06/22 11:29:05;;;;;;;9.88;8.10;;;32.40;99.90;;;;;;5097636;27;20308;-83
2023/06/22 11:31:32;;;;;;;13.98;8.98;;;32.60;99.90;;;;;;5094338;27;20278;-81
2023/06/22 11:33:59;;;;;;;12.68;8.65;;;32.20;99.90;;;;;;5096502;27;20200;-80
2023/06/22 11:36:26;;;;;;;9.80;8.40;;;31.70;99.90;;;;;;5095396;27;20296;-80
2023/06/22 11:38:53;;;;;;;8.52;7.28;;;31.40;99.90;;;;;;5092848;27;20297;-81
2023/06/22 11:41:20;;;;;;;9.10;7.95;;;31.70;99.90;;;;;;5096654;27;20197;-83
2023/06/22 11:43:49;;;;;;;10.68;7.93;;;32.00;99.90;;;;;;5095929;27;20288;-80
2023/06/22 11:46:16;;;;;;;10.48;7.07;;;32.20;99.90;;;;;;5104676;27;20225;-84
2023/06/22 11:48:43;;;;;;;14.35;8.65;;;32.50;99.90;;;;;;5101808;27;20273;-84
2023/06/22 11:51:10;;;;;;;11.32;7.80;;;32.60;99.90;;;;;;5098565;27;21003;-86
2023/06/22 11:53:37;;;;;;;13.25;7.90;;;32.60;99.90;;;;;;5096209;27;20208;-81
2023/06/22 11:56:04;;;;;;;10.30;8.02;;;32.60;99.90;;;;;;5097916;27;20265;-81
2023/06/22 11:58:31;;;;;;;8.55;7.57;;;32.50;99.90;;;;;;5096435;27;20237;-81
2023/06/22 12:00:59;;;;;;;10.98;7.75;;;32.40;99.90;;;;;;5097231;27;20200;-82
2023/06/22 12:03:26;;;;;;;8.93;8.07;;;32.40;99.90;;;;;;5096561;27;20293;-81
2023/06/22 12:05:53;;;;;;;13.82;7.97;;;32.40;99.90;;;;;;5097462;27;20201;-82
2023/06/22 12:08:24;;;;;;;8.15;7.13;;;32.50;99.90;;;;;;5096059;27;20214;-80
2023/06/22 12:10:51;;;;;;;11.90;8.20;;;32.50;99.90;;;;;;5095416;27;20196;-81
2023/06/22 12:13:19;;;;;;;11.98;8.45;;;32.70;99.90;;;;;;5096850;27;20266;-81
2023/06/22 12:15:46;;;;;;;9.50;8.13;;;32.70;99.90;;;;;;5100157;27;20212;-83
2023/06/22 12:18:14;;;;;;;10.18;9.07;;;32.80;99.90;;;;;;5101340;27;21123;-82
2023/06/22 12:20:41;;;;;;;10.98;7.75;;;32.70;99.90;;;;;;5101218;27;20248;-83
2023/06/22 12:23:08;;;;;;;8.57;7.68;;;32.70;99.90;;;;;;5095056;27;20235;-82
2023/06/22 12:25:35;;;;;;;14.13;9.02;;;32.60;99.90;;;;;;5096421;27;20224;-81
2023/06/22 12:28:02;;;;;;;9.38;8.02;;;32.60;99.90;;;;;;5098315;27;20627;-82
2023/06/22 12:30:29;;;;;;;8.00;7.13;;;32.70;99.90;;;;;;5096772;27;20608;-85
2023/06/22 12:32:56;;;;;;;10.15;7.78;;;32.80;99.90;;;;;;5100064;27;20262;-81
2023/06/22 12:35:25;;;;;;;10.20;7.38;;;32.90;99.90;;;;;;5092035;27;20196;-83
2023/06/22 12:37:52;;;;;;;9.77;8.35;;;32.90;99.90;;;;;;5088212;27;20790;-81
2023/06/22 12:40:19;;;;;;;10.27;7.43;;;32.80;99.90;;;;;;5097597;27;20218;-84
2023/06/22 12:42:46;;;;;;;12.57;8.63;;;32.90;99.90;;;;;;5098891;27;20331;-84
2023/06/22 12:45:14;;;;;;;11.40;8.32;;;33.10;99.90;;;;;;5104086;27;20735;-80